Time;durP1;ratioP1;P1;durP2;ratioP2;P2;SDS_P1;SDS_P2;PMS_P1;PMS_P2;Temp;Humidity;BMP_temperature;BMP_pressure;BME280_temperature;BME280_humidity;BME280_pressure;Samples;Min_cycle;Max_cycle;Signal;HPM_P1;HPM_P2
2024/04/24 00:01:21;;;;;;;13.52;7.88;;;;;;;;;;5383694;26;20409;-53
2024/04/24 00:03:47;;;;;;;9.10;6.45;;;;;;;;;;5381321;26;19997;-55
2024/04/24 00:06:15;;;;;;;8.35;4.50;;;;;;;;;;5350895;26;20016;-53
2024/04/24 00:08:41;;;;;;;7.60;3.97;;;;;;;;;;5364633;26;20000;-52
2024/04/24 00:11:07;;;;;;;9.20;3.35;;;;;;;;;;5375868;26;20058;-51
2024/04/24 00:13:33;;;;;;;5.70;2.55;;;;;;;;;;5370635;26;20001;-51
2024/04/24 00:15:59;;;;;;;8.10;2.92;;;;;;;;;;5384531;26;20001;-53
2024/04/24 00:18:25;;;;;;;7.55;2.47;;;;;;;;;;5353874;26;20011;-51
2024/04/24 00:20:53;;;;;;;7.50;2.40;;;;;;;;;;5373943;26;19996;-54
2024/04/24 00:23:18;;;;;;;8.82;2.70;;;;;;;;;;5381293;26;20000;-52
2024/04/24 00:25:44;;;;;;;7.78;2.75;;;;;;;;;;5394704;26;20066;-51
2024/04/24 00:28:09;;;;;;;10.23;2.63;;;;;;;;;;5383561;26;20306;-51
2024/04/24 00:30:34;;;;;;;8.80;3.35;;;;;;;;;;5377869;26;20007;-51
2024/04/24 00:32:59;;;;;;;7.90;2.70;;;;;;;;;;5378974;26;20016;-52
2024/04/24 00:35:25;;;;;;;8.52;3.00;;;;;;;;;;5378737;26;20000;-51
2024/04/24 00:37:50;;;;;;;8.45;3.03;;;;;;;;;;5380280;26;20376;-50
2024/04/24 00:40:15;;;;;;;14.98;3.50;;;;;;;;;;5406530;26;20488;-50
2024/04/24 00:42:40;;;;;;;7.43;3.10;;;;;;;;;;5365641;26;20008;-54
2024/04/24 00:45:06;;;;;;;7.90;3.08;;;;;;;;;;5348360;26;19997;-54
2024/04/24 00:47:31;;;;;;;9.40;3.30;;;;;;;;;;5362960;26;20017;-52
2024/04/24 00:49:58;;;;;;;9.18;2.75;;;;;;;;;;5380071;26;20305;-52
2024/04/24 00:52:23;;;;;;;8.63;2.22;;;;;;;;;;5380266;26;20001;-57
2024/04/24 00:54:49;;;;;;;7.35;2.50;;;;;;;;;;5389978;26;20023;-54
2024/04/24 00:57:14;;;;;;;9.95;3.08;;;;;;;;;;5377219;26;20099;-54
2024/04/24 00:59:39;;;;;;;6.68;2.47;;;;;;;;;;5367961;26;20302;-50
2024/04/24 01:02:05;;;;;;;9.13;2.58;;;;;;;;;;5383986;26;20004;-52
2024/04/24 01:04:30;;;;;;;7.65;2.53;;;;;;;;;;5354268;26;20015;-52
2024/04/24 01:06:55;;;;;;;7.97;2.35;;;;;;;;;;5369898;26;20399;-52
2024/04/24 01:09:20;;;;;;;10.15;2.90;;;;;;;;;;5394123;26;19996;-52
2024/04/24 01:11:46;;;;;;;10.50;3.42;;;;;;;;;;5376675;26;20300;-55
2024/04/24 01:14:11;;;;;;;8.88;3.90;;;;;;;;;;5373279;26;20070;-52
2024/04/24 01:16:39;;;;;;;12.02;4.03;;;;;;;;;;5379380;26;19997;-53
2024/04/24 01:19:06;;;;;;;13.93;4.60;;;;;;;;;;5382849;26;20412;-55
2024/04/24 01:21:52;;;;;;;10.77;4.00;;;;;;;;;;5395506;26;20027;-54
2024/04/24 01:24:25;;;;;;;10.40;4.28;;;;;;;;;;5345974;26;19997;-55
2024/04/24 01:26:50;;;;;;;14.90;5.10;;;;;;;;;;5354225;26;20000;-53
2024/04/24 01:29:16;;;;;;;14.75;4.63;;;;;;;;;;5368818;26;20020;-53
2024/04/24 01:31:41;;;;;;;11.30;4.28;;;;;;;;;;5382920;26;20005;-53
2024/04/24 01:34:06;;;;;;;11.73;3.50;;;;;;;;;;5362269;26;20015;-52
2024/04/24 01:36:32;;;;;;;10.73;3.60;;;;;;;;;;5362231;26;20401;-55
2024/04/24 01:38:57;;;;;;;14.07;4.05;;;;;;;;;;5376116;26;20000;-50
2024/04/24 01:41:22;;;;;;;13.48;3.55;;;;;;;;;;5380444;26;20320;-53
2024/04/24 01:43:47;;;;;;;15.35;4.13;;;;;;;;;;5381121;26;20356;-50
2024/04/24 01:46:12;;;;;;;9.18;3.10;;;;;;;;;;5380827;26;20404;-52
2024/04/24 01:48:38;;;;;;;12.82;2.88;;;;;;;;;;5382026;26;20416;-50
2024/04/24 01:51:03;;;;;;;11.88;2.97;;;;;;;;;;5399589;26;20359;-50
2024/04/24 01:53:28;;;;;;;8.57;2.60;;;;;;;;;;5394052;26;20012;-51
2024/04/24 01:55:54;;;;;;;9.07;2.70;;;;;;;;;;5353010;26;19997;-53
2024/04/24 01:58:19;;;;;;;12.27;2.78;;;;;;;;;;5348237;26;20044;-51
2024/04/24 02:00:44;;;;;;;11.20;2.53;;;;;;;;;;5367099;26;20008;-53
2024/04/24 02:03:09;;;;;;;11.63;2.47;;;;;;;;;;5373968;26;19996;-53
2024/04/24 02:05:34;;;;;;;11.20;2.55;;;;;;;;;;5356429;26;20001;-54
2024/04/24 02:08:00;;;;;;;8.77;2.30;;;;;;;;;;5383392;26;20003;-50
2024/04/24 02:10:25;;;;;;;6.75;2.47;;;;;;;;;;5352228;26;20063;-51
2024/04/24 02:12:50;;;;;;;11.10;2.50;;;;;;;;;;5367850;26;20013;-53
2024/04/24 02:15:16;;;;;;;8.40;2.08;;;;;;;;;;5347488;26;20422;-55
2024/04/24 02:17:41;;;;;;;12.00;2.58;;;;;;;;;;5347967;26;19997;-53
2024/04/24 02:20:06;;;;;;;10.10;2.10;;;;;;;;;;5385929;26;20065;-51
2024/04/24 02:22:32;;;;;;;10.90;2.53;;;;;;;;;;5383050;26;20070;-52
2024/04/24 02:27:41;;;;;;;9.52;2.38;;;;;;;;;;5384967;26;20017;-52
2024/04/24 02:30:06;;;;;;;12.13;2.45;;;;;;;;;;5350266;26;20001;-52
2024/04/24 02:32:31;;;;;;;11.02;2.63;;;;;;;;;;5369104;26;20402;-55
2024/04/24 02:34:57;;;;;;;10.52;2.50;;;;;;;;;;5390443;26;20015;-54
2024/04/24 02:37:22;;;;;;;10.38;2.80;;;;;;;;;;5359967;26;20016;-54
2024/04/24 02:39:47;;;;;;;11.55;3.05;;;;;;;;;;5352891;26;20001;-53
2024/04/24 02:42:12;;;;;;;13.52;2.83;;;;;;;;;;5384353;26;20068;-54
2024/04/24 02:44:37;;;;;;;10.43;2.85;;;;;;;;;;5385819;26;19996;-52
2024/04/24 02:47:03;;;;;;;13.13;2.83;;;;;;;;;;5383513;26;20001;-54
2024/04/24 02:49:28;;;;;;;12.82;2.67;;;;;;;;;;5383861;26;20078;-54
2024/04/24 02:51:53;;;;;;;13.60;2.95;;;;;;;;;;5388082;26;20413;-55
2024/04/24 02:54:18;;;;;;;13.05;2.97;;;;;;;;;;5382496;26;20051;-51
2024/04/24 02:56:43;;;;;;;14.07;2.75;;;;;;;;;;5383230;26;20004;-54
2024/04/24 02:59:09;;;;;;;11.20;2.72;;;;;;;;;;5392860;26;19996;-50
2024/04/24 03:01:34;;;;;;;9.60;1.95;;;;;;;;;;5398752;21;20035;-89
2024/04/24 03:04:00;;;;;;;9.27;2.50;;;;;;;;;;5375213;26;20007;-89
2024/04/24 03:06:27;;;;;;;15.10;2.70;;;;;;;;;;5349790;26;20000;-89
2024/04/24 03:08:52;;;;;;;11.50;2.90;;;;;;;;;;5342591;26;20000;-89
2024/04/24 03:11:17;;;;;;;12.02;2.70;;;;;;;;;;5354529;26;20313;-89
2024/04/24 03:13:44;;;;;;;13.50;2.78;;;;;;;;;;5365951;26;20060;-89
2024/04/24 03:16:10;;;;;;;10.48;2.63;;;;;;;;;;5337962;26;20365;-89
2024/04/24 03:18:37;;;;;;;14.23;2.78;;;;;;;;;;5368591;26;20011;-89
2024/04/24 03:21:03;;;;;;;12.05;2.90;;;;;;;;;;5354989;26;20015;-90
2024/04/24 03:23:28;;;;;;;16.60;2.90;;;;;;;;;;5365970;26;20397;-90
2024/04/24 03:25:53;;;;;;;11.55;2.47;;;;;;;;;;5384199;26;20012;-90
2024/04/24 03:28:19;;;;;;;10.38;2.70;;;;;;;;;;5353193;26;20336;-90
2024/04/24 03:30:44;;;;;;;10.75;2.45;;;;;;;;;;5354638;26;20040;-90
2024/04/24 03:33:09;;;;;;;9.48;2.53;;;;;;;;;;5354581;26;20004;-89
2024/04/24 03:35:35;;;;;;;6.85;2.17;;;;;;;;;;5362062;26;20011;-90
2024/04/24 03:38:00;;;;;;;12.23;2.90;;;;;;;;;;5385771;26;20078;-90
2024/04/24 03:40:25;;;;;;;10.23;2.65;;;;;;;;;;5357045;26;20014;-90
2024/04/24 03:42:51;;;;;;;11.05;2.60;;;;;;;;;;5355363;26;20017;-90
2024/04/24 03:45:17;;;;;;;8.75;2.35;;;;;;;;;;5345641;26;20000;-90
2024/04/24 03:47:42;;;;;;;10.63;2.70;;;;;;;;;;5354920;26;20000;-90
2024/04/24 03:50:08;;;;;;;11.93;2.67;;;;;;;;;;5386899;26;20071;-89
2024/04/24 03:52:33;;;;;;;11.07;2.58;;;;;;;;;;5357115;26;20011;-90
2024/04/24 03:54:58;;;;;;;12.80;3.67;;;;;;;;;;5365012;26;20003;-90
2024/04/24 03:57:24;;;;;;;11.95;3.38;;;;;;;;;;5361447;26;20001;-89
2024/04/24 03:59:51;;;;;;;12.57;2.78;;;;;;;;;;5393415;26;20004;-89
2024/04/24 04:02:16;;;;;;;10.90;2.90;;;;;;;;;;5363441;21;20005;-53
2024/04/24 04:04:42;;;;;;;9.82;2.90;;;;;;;;;;5350993;26;20283;-51
2024/04/24 04:07:07;;;;;;;10.38;3.28;;;;;;;;;;5350816;26;19989;-52
2024/04/24 04:09:32;;;;;;;11.07;2.80;;;;;;;;;;5346379;26;20286;-53
2024/04/24 04:11:57;;;;;;;15.70;2.95;;;;;;;;;;5347487;26;20270;-52
2024/04/24 04:14:22;;;;;;;11.35;3.13;;;;;;;;;;5347594;26;20326;-51
2024/04/24 04:16:47;;;;;;;10.55;2.70;;;;;;;;;;5350970;26;20023;-52
2024/04/24 04:19:13;;;;;;;14.30;3.38;;;;;;;;;;5348095;26;20011;-53
2024/04/24 04:21:38;;;;;;;11.93;3.25;;;;;;;;;;5350840;26;20000;-51
2024/04/24 04:24:03;;;;;;;13.40;3.13;;;;;;;;;;5346710;26;20020;-51
2024/04/24 04:26:28;;;;;;;16.88;3.90;;;;;;;;;;5336049;26;20015;-52
2024/04/24 04:28:53;;;;;;;14.20;3.50;;;;;;;;;;5346487;26;20020;-51
2024/04/24 04:31:19;;;;;;;10.98;2.65;;;;;;;;;;5349897;26;20008;-51
2024/04/24 04:33:45;;;;;;;11.55;3.25;;;;;;;;;;5339147;26;20361;-54
2024/04/24 04:36:11;;;;;;;10.00;2.67;;;;;;;;;;5344264;26;20012;-52
2024/04/24 04:38:36;;;;;;;9.45;2.35;;;;;;;;;;5346603;26;20005;-52
2024/04/24 04:41:03;;;;;;;12.40;2.50;;;;;;;;;;5348096;26;20416;-52
2024/04/24 04:43:28;;;;;;;11.82;2.20;;;;;;;;;;5339185;26;20067;-52
2024/04/24 04:45:53;;;;;;;9.52;2.40;;;;;;;;;;5336569;26;20013;-52
2024/04/24 04:48:19;;;;;;;10.45;2.60;;;;;;;;;;5335384;26;20001;-51
2024/04/24 04:50:44;;;;;;;9.27;2.67;;;;;;;;;;5345335;26;20005;-53
2024/04/24 04:53:09;;;;;;;12.15;2.40;;;;;;;;;;5343337;26;20037;-53
2024/04/24 04:55:34;;;;;;;10.65;2.15;;;;;;;;;;5325737;26;19997;-52
2024/04/24 04:58:00;;;;;;;9.55;2.30;;;;;;;;;;5316660;26;20403;-51
2024/04/24 05:00:26;;;;;;;11.15;2.70;;;;;;;;;;5345840;26;20359;-53
2024/04/24 05:02:51;;;;;;;12.13;2.58;;;;;;;;;;5342337;26;20013;-53
2024/04/24 05:05:17;;;;;;;10.60;2.42;;;;;;;;;;5345945;26;20012;-52
2024/04/24 05:07:42;;;;;;;9.88;2.40;;;;;;;;;;5342888;26;20001;-52
2024/04/24 05:10:07;;;;;;;8.50;2.30;;;;;;;;;;5347503;26;20004;-56
2024/04/24 05:12:32;;;;;;;10.77;2.58;;;;;;;;;;5338727;26;20015;-52
2024/04/24 05:14:58;;;;;;;11.23;2.45;;;;;;;;;;5345348;26;20063;-51
2024/04/24 05:17:23;;;;;;;7.25;2.65;;;;;;;;;;5348121;26;20016;-51
2024/04/24 05:19:48;;;;;;;10.00;2.90;;;;;;;;;;5348857;26;19996;-52
2024/04/24 05:22:13;;;;;;;11.35;2.78;;;;;;;;;;5349306;26;20000;-51
2024/04/24 05:24:39;;;;;;;10.35;2.80;;;;;;;;;;5349853;26;20004;-52
2024/04/24 05:29:48;;;;;;;8.85;2.42;;;;;;;;;;5350473;26;20416;-51
2024/04/24 05:32:13;;;;;;;9.50;3.28;;;;;;;;;;5319603;26;20000;-51
2024/04/24 05:34:38;;;;;;;9.77;2.72;;;;;;;;;;5318788;26;19996;-52
2024/04/24 05:37:03;;;;;;;5.75;2.20;;;;;;;;;;5315072;27;20099;-51
2024/04/24 05:39:29;;;;;;;9.80;2.88;;;;;;;;;;5315243;27;19998;-53
2024/04/24 05:41:54;;;;;;;11.05;2.70;;;;;;;;;;5315182;27;20005;-52
2024/04/24 05:44:19;;;;;;;10.35;2.28;;;;;;;;;;5309952;26;19997;-51
2024/04/24 05:46:45;;;;;;;9.20;2.45;;;;;;;;;;5349555;26;20334;-51
2024/04/24 05:49:10;;;;;;;10.00;2.83;;;;;;;;;;5349659;26;20402;-51
2024/04/24 05:51:35;;;;;;;11.13;2.90;;;;;;;;;;5349667;26;19997;-52
2024/04/24 05:54:00;;;;;;;7.53;2.47;;;;;;;;;;5349530;26;19988;-51
2024/04/24 05:56:25;;;;;;;7.00;2.47;;;;;;;;;;5349904;26;20051;-52
2024/04/24 05:58:51;;;;;;;7.88;2.40;;;;;;;;;;5322123;26;20001;-52
2024/04/24 06:01:16;;;;;;;7.57;2.22;;;;;;;;;;5350996;26;20281;-51
2024/04/24 06:03:41;;;;;;;11.82;2.53;;;;;;;;;;5351704;26;19997;-55
2024/04/24 06:06:06;;;;;;;12.10;2.90;;;;;;;;;;5322212;26;20342;-51
2024/04/24 06:08:32;;;;;;;10.23;3.13;;;;;;;;;;5322205;26;19993;-52
2024/04/24 06:10:57;;;;;;;13.88;2.72;;;;;;;;;;5350591;26;20000;-53
2024/04/24 06:13:22;;;;;;;11.95;2.88;;;;;;;;;;5317980;26;20000;-51
2024/04/24 06:15:47;;;;;;;12.50;4.35;;;;;;;;;;5317934;26;20005;-52
2024/04/24 06:18:12;;;;;;;10.10;2.65;;;;;;;;;;5318036;26;20364;-52
2024/04/24 06:20:38;;;;;;;11.18;2.55;;;;;;;;;;5317682;26;20284;-53
2024/04/24 06:23:03;;;;;;;9.82;2.22;;;;;;;;;;5317916;26;20425;-55
2024/04/24 06:25:28;;;;;;;10.70;2.50;;;;;;;;;;5325367;26;20307;-51
2024/04/24 06:27:54;;;;;;;11.23;2.72;;;;;;;;;;5352033;26;20003;-52
2024/04/24 06:30:19;;;;;;;9.85;2.72;;;;;;;;;;5321792;26;19997;-52
2024/04/24 06:32:44;;;;;;;17.98;2.70;;;;;;;;;;5321229;26;19997;-51
2024/04/24 06:35:09;;;;;;;11.57;2.72;;;;;;;;;;5352560;26;19993;-52
2024/04/24 06:37:34;;;;;;;11.73;2.70;;;;;;;;;;5321439;26;19997;-53
2024/04/24 06:40:00;;;;;;;9.27;2.30;;;;;;;;;;5338931;26;19997;-51
2024/04/24 06:42:25;;;;;;;11.00;2.45;;;;;;;;;;5318217;26;19993;-55
2024/04/24 06:44:51;;;;;;;7.78;2.20;;;;;;;;;;5320267;26;19993;-54
2024/04/24 06:47:16;;;;;;;13.00;2.40;;;;;;;;;;5317664;26;20028;-52
2024/04/24 06:49:42;;;;;;;12.25;3.35;;;;;;;;;;5317246;26;20000;-51
2024/04/24 06:52:07;;;;;;;9.27;2.03;;;;;;;;;;5317597;26;20011;-51
2024/04/24 06:54:32;;;;;;;9.30;2.30;;;;;;;;;;5334102;26;20079;-52
2024/04/24 06:56:57;;;;;;;11.65;2.83;;;;;;;;;;5352044;26;19997;-51
2024/04/24 06:59:26;;;;;;;11.38;2.80;;;;;;;;;;5321621;26;20012;-54
2024/04/24 07:01:51;;;;;;;13.07;2.47;;;;;;;;;;5349072;26;20008;-54
2024/04/24 07:04:16;;;;;;;11.23;2.40;;;;;;;;;;5321193;26;19997;-52
2024/04/24 07:06:42;;;;;;;12.85;2.60;;;;;;;;;;5351762;26;20004;-51
2024/04/24 07:09:07;;;;;;;9.88;2.22;;;;;;;;;;5349669;26;20294;-54
2024/04/24 07:11:32;;;;;;;11.98;2.60;;;;;;;;;;5351949;26;20294;-55
2024/04/24 07:13:57;;;;;;;10.02;2.50;;;;;;;;;;5351860;26;20005;-54
2024/04/24 07:16:23;;;;;;;12.20;3.13;;;;;;;;;;5351674;26;19993;-54
2024/04/24 07:18:48;;;;;;;10.80;2.42;;;;;;;;;;5351831;26;20063;-52
2024/04/24 07:21:13;;;;;;;14.93;3.28;;;;;;;;;;5351672;26;19993;-51
2024/04/24 07:23:38;;;;;;;11.10;2.55;;;;;;;;;;5320437;26;20065;-56
2024/04/24 07:26:03;;;;;;;12.35;2.67;;;;;;;;;;5317080;26;19990;-52
2024/04/24 07:28:29;;;;;;;9.85;2.97;;;;;;;;;;5317333;26;19989;-52
2024/04/24 07:30:54;;;;;;;9.75;2.65;;;;;;;;;;5317153;26;20003;-52
2024/04/24 07:33:20;;;;;;;13.38;2.70;;;;;;;;;;5316865;26;20001;-53
2024/04/24 07:35:45;;;;;;;8.05;2.03;;;;;;;;;;5317147;26;20358;-53
2024/04/24 07:38:11;;;;;;;11.45;2.42;;;;;;;;;;5317608;26;19989;-54
2024/04/24 07:40:36;;;;;;;11.80;2.28;;;;;;;;;;5319181;26;20005;-53
2024/04/24 07:43:02;;;;;;;12.27;2.45;;;;;;;;;;5316708;26;20073;-53
2024/04/24 07:45:27;;;;;;;13.35;2.70;;;;;;;;;;5317123;26;20428;-52
2024/04/24 07:47:52;;;;;;;14.02;2.80;;;;;;;;;;5317226;26;19994;-54
2024/04/24 07:50:17;;;;;;;11.95;2.60;;;;;;;;;;5316781;26;20000;-54
2024/04/24 07:52:42;;;;;;;10.43;2.63;;;;;;;;;;5318760;26;19994;-54
2024/04/24 07:55:08;;;;;;;8.88;2.67;;;;;;;;;;5297251;26;20005;-51
2024/04/24 07:57:33;;;;;;;11.38;2.92;;;;;;;;;;5351141;26;20017;-54
2024/04/24 07:59:58;;;;;;;11.35;2.42;;;;;;;;;;5350907;26;20011;-55
2024/04/24 08:02:23;;;;;;;12.02;2.78;;;;;;;;;;5349454;26;20294;-54
2024/04/24 08:04:49;;;;;;;16.58;2.80;;;;;;;;;;5351004;26;20000;-53
2024/04/24 08:07:15;;;;;;;12.07;2.75;;;;;;;;;;5341185;26;20121;-54
2024/04/24 08:09:40;;;;;;;11.50;2.70;;;;;;;;;;5350411;26;19996;-51
2024/04/24 08:12:06;;;;;;;13.00;2.70;;;;;;;;;;5335991;26;20016;-56
2024/04/24 08:14:31;;;;;;;15.00;2.97;;;;;;;;;;5316458;26;20009;-55
2024/04/24 08:16:56;;;;;;;10.68;2.70;;;;;;;;;;5316587;26;19998;-51
2024/04/24 08:19:22;;;;;;;16.02;3.03;;;;;;;;;;5316524;26;19998;-55
2024/04/24 08:21:47;;;;;;;10.10;2.42;;;;;;;;;;5332016;26;19996;-52
2024/04/24 08:24:12;;;;;;;11.32;2.40;;;;;;;;;;5350708;26;20005;-51
2024/04/24 08:26:37;;;;;;;9.05;2.25;;;;;;;;;;5350857;26;20003;-51
2024/04/24 08:29:03;;;;;;;19.52;2.60;;;;;;;;;;5350819;26;19997;-52
2024/04/24 08:31:28;;;;;;;12.00;2.70;;;;;;;;;;5350678;26;20001;-52
2024/04/24 08:33:53;;;;;;;17.55;2.63;;;;;;;;;;5350682;26;20414;-52
2024/04/24 08:36:18;;;;;;;13.32;2.90;;;;;;;;;;5314891;27;19998;-55
2024/04/24 08:38:43;;;;;;;15.43;3.40;;;;;;;;;;5316179;26;20004;-55
2024/04/24 08:41:09;;;;;;;13.07;3.20;;;;;;;;;;5316049;26;19990;-52
2024/04/24 08:43:36;;;;;;;13.63;3.28;;;;;;;;;;5316038;26;19994;-52
2024/04/24 08:46:03;;;;;;;13.55;3.05;;;;;;;;;;5318587;26;20002;-52
2024/04/24 08:48:29;;;;;;;16.65;3.67;;;;;;;;;;5316006;26;20005;-52
2024/04/24 08:50:55;;;;;;;14.70;3.67;;;;;;;;;;5344530;26;20302;-54
2024/04/24 08:53:23;;;;;;;21.85;4.30;;;;;;;;;;5350502;26;20415;-52
2024/04/24 08:55:49;;;;;;;15.40;2.95;;;;;;;;;;5350374;26;20004;-51
2024/04/24 08:58:18;;;;;;;11.30;2.53;;;;;;;;;;5350359;26;20025;-51
2024/04/24 09:00:43;;;;;;;21.00;2.70;;;;;;;;;;5349855;26;20444;-52
2024/04/24 09:03:15;;;;;;;15.50;2.80;;;;;;;;;;5346894;26;20008;-52
2024/04/24 09:05:41;;;;;;;19.35;3.08;;;;;;;;;;5313750;27;19998;-52
2024/04/24 09:08:08;;;;;;;18.83;3.35;;;;;;;;;;5318065;26;20072;-51
2024/04/24 09:10:34;;;;;;;14.27;3.17;;;;;;;;;;5316015;26;20005;-55
2024/04/24 09:13:00;;;;;;;13.50;3.00;;;;;;;;;;5315817;26;20016;-56
2024/04/24 09:15:26;;;;;;;16.10;4.22;;;;;;;;;;5315697;26;20009;-54
2024/04/24 09:17:52;;;;;;;17.67;3.50;;;;;;;;;;5325508;26;20413;-52
2024/04/24 09:20:17;;;;;;;14.30;3.30;;;;;;;;;;5350258;26;20008;-52
2024/04/24 09:22:42;;;;;;;18.25;4.43;;;;;;;;;;5350015;26;19993;-55
2024/04/24 09:25:07;;;;;;;14.05;3.40;;;;;;;;;;5350016;26;20009;-53
2024/04/24 09:27:33;;;;;;;15.85;3.65;;;;;;;;;;5349642;26;20004;-57
2024/04/24 09:29:59;;;;;;;13.63;2.78;;;;;;;;;;5349929;26;20410;-56
2024/04/24 09:32:25;;;;;;;15.20;3.53;;;;;;;;;;5338621;26;20013;-51
2024/04/24 09:34:51;;;;;;;19.98;3.47;;;;;;;;;;5338059;26;19993;-53
2024/04/24 09:37:17;;;;;;;13.63;4.03;;;;;;;;;;5349872;26;19992;-52
2024/04/24 09:39:43;;;;;;;14.63;4.13;;;;;;;;;;5315556;26;20013;-52
2024/04/24 09:42:11;;;;;;;17.90;4.55;;;;;;;;;;5315125;27;20069;-56
2024/04/24 09:44:44;;;;;;;28.73;10.38;;;;;;;;;;5315012;27;19994;-54
2024/04/24 09:47:12;;;;;;;19.20;3.50;;;;;;;;;;5316838;26;20001;-54
2024/04/24 09:49:38;;;;;;;14.70;3.22;;;;;;;;;;5315216;27;20423;-54
2024/04/24 09:52:03;;;;;;;19.17;5.28;;;;;;;;;;5315135;27;20001;-53
2024/04/24 09:54:28;;;;;;;32.28;12.13;;;;;;;;;;5343908;26;20011;-54
2024/04/24 09:56:58;;;;;;;12.30;3.45;;;;;;;;;;5349380;26;19989;-55
2024/04/24 09:59:33;;;;;;;10.15;2.97;;;;;;;;;;5317064;26;20072;-54
2024/04/24 10:02:04;;;;;;;12.55;2.72;;;;;;;;;;5316037;26;20001;-56
2024/04/24 10:04:30;;;;;;;17.45;2.90;;;;;;;;;;5313204;26;19997;-53
2024/04/24 10:06:57;;;;;;;14.45;2.92;;;;;;;;;;5314667;26;20012;-57
2024/04/24 10:09:25;;;;;;;10.68;2.60;;;;;;;;;;5313334;27;20006;-56
2024/04/24 10:11:53;;;;;;;15.18;2.90;;;;;;;;;;5313695;26;20360;-52
2024/04/24 10:14:20;;;;;;;15.93;2.60;;;;;;;;;;5329863;26;20032;-56
2024/04/24 10:16:46;;;;;;;12.80;3.13;;;;;;;;;;5349218;26;20004;-54
2024/04/24 10:19:13;;;;;;;13.60;3.10;;;;;;;;;;5349024;26;20338;-56
2024/04/24 10:21:39;;;;;;;17.25;3.78;;;;;;;;;;5349125;26;20004;-55
2024/04/24 10:24:04;;;;;;;14.32;3.38;;;;;;;;;;5348992;26;19997;-55
2024/04/24 10:26:30;;;;;;;10.38;2.45;;;;;;;;;;5334113;26;19994;-55
2024/04/24 10:28:55;;;;;;;11.45;2.75;;;;;;;;;;5317225;26;20013;-53
2024/04/24 10:31:22;;;;;;;14.15;3.50;;;;;;;;;;5314641;26;19994;-53
2024/04/24 10:33:48;;;;;;;11.57;3.30;;;;;;;;;;5314770;26;20013;-54
2024/04/24 10:36:13;;;;;;;11.07;3.33;;;;;;;;;;5312729;27;19994;-56
2024/04/24 10:38:41;;;;;;;11.32;2.60;;;;;;;;;;5314499;26;19998;-56
2024/04/24 10:41:06;;;;;;;11.85;3.40;;;;;;;;;;5337234;26;20032;-56
2024/04/24 10:43:33;;;;;;;9.05;2.15;;;;;;;;;;5351009;26;20287;-57
2024/04/24 10:46:02;;;;;;;10.15;2.20;;;;;;;;;;5351486;26;20075;-53
2024/04/24 10:48:39;;;;;;;8.07;1.88;;;;;;;;;;5352252;26;20001;-56
2024/04/24 10:51:04;;;;;;;12.98;2.80;;;;;;;;;;5352150;26;20009;-55
2024/04/24 10:53:30;;;;;;;13.70;2.97;;;;;;;;;;5352062;26;20020;-54
2024/04/24 10:55:58;;;;;;;11.15;2.45;;;;;;;;;;5320268;26;19993;-54
2024/04/24 10:58:23;;;;;;;10.20;3.00;;;;;;;;;;5317404;26;20068;-55
2024/04/24 11:00:49;;;;;;;12.85;2.50;;;;;;;;;;5321796;26;19998;-53
2024/04/24 11:03:14;;;;;;;10.07;2.45;;;;;;;;;;5349445;26;20056;-52
2024/04/24 11:05:42;;;;;;;13.02;2.50;;;;;;;;;;5321915;26;20075;-53
2024/04/24 11:08:07;;;;;;;15.02;3.42;;;;;;;;;;5346605;26;20005;-57
2024/04/24 11:10:32;;;;;;;10.35;3.20;;;;;;;;;;5318368;26;20001;-53
2024/04/24 11:12:58;;;;;;;9.57;2.50;;;;;;;;;;5317149;26;19998;-55
2024/04/24 11:15:24;;;;;;;8.18;2.08;;;;;;;;;;5317572;26;20008;-54
2024/04/24 11:17:52;;;;;;;7.40;2.00;;;;;;;;;;5317252;26;20008;-58
2024/04/24 11:20:18;;;;;;;7.43;2.67;;;;;;;;;;5317217;26;20010;-58
2024/04/24 11:22:44;;;;;;;6.82;1.75;;;;;;;;;;5329181;26;20012;-57
2024/04/24 11:25:10;;;;;;;9.38;2.45;;;;;;;;;;5351700;26;20000;-54
2024/04/24 11:27:35;;;;;;;7.68;1.98;;;;;;;;;;5351775;26;20029;-57
2024/04/24 11:30:16;;;;;;;9.98;2.40;;;;;;;;;;5351371;26;19996;-58
2024/04/24 11:32:46;;;;;;;8.40;2.50;;;;;;;;;;5351636;26;20418;-57
2024/04/24 11:35:12;;;;;;;5.72;1.90;;;;;;;;;;5351218;26;19997;-59
2024/04/24 11:37:40;;;;;;;5.88;1.50;;;;;;;;;;5320537;26;20087;-54
2024/04/24 11:40:06;;;;;;;7.53;2.35;;;;;;;;;;5351403;26;19997;-55
2024/04/24 11:42:31;;;;;;;7.50;2.40;;;;;;;;;;5320841;26;20075;-55
2024/04/24 11:44:57;;;;;;;6.43;1.92;;;;;;;;;;5351420;26;20004;-55
2024/04/24 11:47:22;;;;;;;6.32;2.05;;;;;;;;;;5351435;26;20011;-57
2024/04/24 11:49:51;;;;;;;7.10;1.70;;;;;;;;;;5312923;27;20403;-53
2024/04/24 11:52:16;;;;;;;5.50;1.80;;;;;;;;;;5317071;27;20002;-54
2024/04/24 11:54:44;;;;;;;5.40;1.70;;;;;;;;;;5315824;27;20001;-53
2024/04/24 11:57:10;;;;;;;7.00;1.80;;;;;;;;;;5316818;27;20008;-56
2024/04/24 11:59:40;;;;;;;5.57;1.85;;;;;;;;;;5316679;26;19993;-52
2024/04/24 12:02:06;;;;;;;8.68;1.77;;;;;;;;;;5313741;26;20001;-56
2024/04/24 12:04:31;;;;;;;5.93;1.88;;;;;;;;;;5332962;26;20063;-55
2024/04/24 12:06:56;;;;;;;4.88;1.63;;;;;;;;;;5292065;26;19993;-54
2024/04/24 12:09:21;;;;;;;7.30;2.30;;;;;;;;;;5350931;26;19992;-54
2024/04/24 12:11:49;;;;;;;6.30;1.80;;;;;;;;;;5351278;26;20075;-55
2024/04/24 12:14:18;;;;;;;7.05;1.98;;;;;;;;;;5351360;26;20009;-56
2024/04/24 12:16:43;;;;;;;8.73;2.10;;;;;;;;;;5351312;26;20001;-55
2024/04/24 12:19:08;;;;;;;7.50;3.25;;;;;;;;;;5315224;27;20414;-56
2024/04/24 12:21:34;;;;;;;6.72;2.50;;;;;;;;;;5316253;26;20001;-56
2024/04/24 12:23:59;;;;;;;15.35;3.90;;;;;;;;;;5316270;26;19998;-54
2024/04/24 12:26:26;;;;;;;9.13;3.58;;;;;;;;;;5316496;26;20003;-56
2024/04/24 12:28:51;;;;;;;7.57;2.72;;;;;;;;;;5316311;26;20014;-56
2024/04/24 12:31:17;;;;;;;7.45;3.10;;;;;;;;;;5316234;26;20016;-56
2024/04/24 12:33:42;;;;;;;7.03;3.38;;;;;;;;;;5346820;26;20015;-54
2024/04/24 12:36:07;;;;;;;7.45;3.22;;;;;;;;;;5350663;26;19993;-52
2024/04/24 12:38:33;;;;;;;7.25;2.08;;;;;;;;;;5350479;26;20390;-54
2024/04/24 12:40:58;;;;;;;7.32;2.20;;;;;;;;;;5338382;26;20030;-55
2024/04/24 12:43:23;;;;;;;8.82;1.80;;;;;;;;;;5315849;26;20421;-52
2024/04/24 12:45:49;;;;;;;5.65;1.83;;;;;;;;;;5317508;26;19998;-56
2024/04/24 12:48:14;;;;;;;7.28;2.10;;;;;;;;;;5321862;26;20002;-56
2024/04/24 12:50:39;;;;;;;5.65;1.80;;;;;;;;;;5337243;26;19996;-55
2024/04/24 12:53:05;;;;;;;8.40;1.95;;;;;;;;;;5349835;26;19993;-53
2024/04/24 12:55:30;;;;;;;7.90;1.90;;;;;;;;;;5350313;26;20008;-53
2024/04/24 12:57:55;;;;;;;8.32;2.08;;;;;;;;;;5350241;26;20417;-51
2024/04/24 13:00:20;;;;;;;13.18;3.00;;;;;;;;;;5342214;26;20395;-55
2024/04/24 13:02:46;;;;;;;9.68;3.10;;;;;;;;;;5313616;26;19989;-52
2024/04/24 13:05:11;;;;;;;8.88;3.22;;;;;;;;;;5315156;26;20402;-54
2024/04/24 13:07:37;;;;;;;8.13;3.80;;;;;;;;;;5315515;26;19997;-56
2024/04/24 13:10:03;;;;;;;11.10;4.70;;;;;;;;;;5329434;26;20019;-51
2024/04/24 13:12:28;;;;;;;8.35;4.35;;;;;;;;;;5350113;26;20290;-55
2024/04/24 13:14:53;;;;;;;6.28;2.85;;;;;;;;;;5336386;26;20009;-55
2024/04/24 13:17:19;;;;;;;4.85;2.38;;;;;;;;;;5315455;26;19990;-54
2024/04/24 13:19:44;;;;;;;6.60;2.55;;;;;;;;;;5315844;26;20016;-56
2024/04/24 13:22:09;;;;;;;6.30;2.60;;;;;;;;;;5315493;26;20004;-56
2024/04/24 13:24:34;;;;;;;6.28;1.92;;;;;;;;;;5315371;26;20020;-57
2024/04/24 13:26:59;;;;;;;6.20;1.90;;;;;;;;;;5315512;26;20004;-56
2024/04/24 13:29:25;;;;;;;7.75;1.88;;;;;;;;;;5335256;26;20008;-56
2024/04/24 13:31:50;;;;;;;6.43;1.88;;;;;;;;;;5349829;26;19989;-55
2024/04/24 13:34:15;;;;;;;6.53;1.80;;;;;;;;;;5349870;26;20005;-56
2024/04/24 13:36:41;;;;;;;5.45;1.48;;;;;;;;;;5349828;26;19993;-57
2024/04/24 13:39:06;;;;;;;7.22;1.33;;;;;;;;;;5349725;26;19993;-57
2024/04/24 13:41:32;;;;;;;4.63;1.45;;;;;;;;;;5349710;26;20006;-55
2024/04/24 13:43:57;;;;;;;3.78;1.20;;;;;;;;;;5349551;26;20028;-57
2024/04/24 13:46:22;;;;;;;4.70;1.23;;;;;;;;;;5347336;26;20353;-56
2024/04/24 13:48:48;;;;;;;3.40;1.00;;;;;;;;;;5349837;26;20007;-57
2024/04/24 13:51:13;;;;;;;5.20;1.42;;;;;;;;;;5349834;26;20457;-55
2024/04/24 13:53:38;;;;;;;3.72;1.10;;;;;;;;;;5337205;26;20403;-56
2024/04/24 13:56:03;;;;;;;7.20;1.30;;;;;;;;;;5336630;26;20001;-57
2024/04/24 13:58:29;;;;;;;4.63;1.55;;;;;;;;;;5349208;26;20421;-54
2024/04/24 14:00:54;;;;;;;5.30;1.27;;;;;;;;;;5320285;26;20002;-51
2024/04/24 14:03:19;;;;;;;6.47;1.50;;;;;;;;;;5314926;26;20021;-57
2024/04/24 14:05:48;;;;;;;7.72;2.13;;;;;;;;;;5314782;26;20064;-57
2024/04/24 14:08:13;;;;;;;8.48;2.42;;;;;;;;;;5313192;27;20068;-57
2024/04/24 14:10:38;;;;;;;5.47;1.98;;;;;;;;;;5317237;26;20033;-54
2024/04/24 14:13:04;;;;;;;5.28;1.83;;;;;;;;;;5315482;26;20028;-57
2024/04/24 14:15:29;;;;;;;5.75;1.63;;;;;;;;;;5349158;26;20004;-56
2024/04/24 14:17:54;;;;;;;5.50;1.77;;;;;;;;;;5350634;26;20004;-56
2024/04/24 14:20:19;;;;;;;5.82;2.00;;;;;;;;;;5352377;26;20398;-55
2024/04/24 14:22:45;;;;;;;6.80;1.92;;;;;;;;;;5352233;26;20004;-55
2024/04/24 14:25:10;;;;;;;6.78;1.83;;;;;;;;;;5352311;26;20413;-54
2024/04/24 14:27:35;;;;;;;5.40;1.63;;;;;;;;;;5345543;26;20012;-54
2024/04/24 14:30:00;;;;;;;5.97;1.80;;;;;;;;;;5317842;26;20414;-55
2024/04/24 14:32:25;;;;;;;5.53;1.70;;;;;;;;;;5317795;26;20411;-57